• Join FlightAware (Why Join?)
  • Login
  • US Flag 
05:13AM EDT


 

Airport Tracker/Info


-or-


 

Live Flight TrackerFlight Track Log ✈ UAL823 ✈ 28-May-2012 ✈ KIAD - MMMX / MEX

Flight Track Log - Related Links

Times and Time Zones

All times are in EDT time to prevent confusion due to time zone crossing. See the UAL823 flight status page for this flight to view local times or setup timezone preferences in your user account.

Time Position Orientation Groundspeed Altitude Reporting Facility
EDT Latitude Longitude Course Direction KTS MPH feet Rate Location/Type
05:34PM 38.8873 -77.4897 124° Southeast  Level FlightAware Approximate
05:35PM 38.7786 -77.5547 43° Northeast  Level FlightAware Approximate
05:36PM 38.8667 -77.4500 211° Southwest 191 220 2,400  Level Potomac TRACON
05:40PM 38.6017 -77.6558 212° Southwest 317 365 12,400 2,340 Climbing Washington Center
05:41PM 38.5172 -77.7225 232° Southwest 342 394 14,700 2,460 Climbing Washington Center
05:42PM 38.4528 -77.8267 237° Southwest 350 403 17,400 2,220 Climbing Washington Center
05:43PM 38.3964 -77.9389 236° Southwest 370 426 19,100 1,860 Climbing Washington Center
05:44PM 38.3336 -78.0561 237° Southwest 391 450 21,100 1,860 Climbing Washington Center
05:45PM 38.2728 -78.1756 235° Southwest 402 463 22,900 1,800 Climbing Washington Center
05:46PM 38.2053 -78.2975 236° Southwest 412 474 24,800 1,740 Climbing Washington Center
05:47PM 38.1400 -78.4192 247° West 412 474 26,400 1,620 Climbing Washington Center
05:48PM 38.0906 -78.5653 247° West 412 474 28,100 1,440 Climbing Washington Center
05:49PM 38.0433 -78.7031 246° West 423 487 29,400 1,080 Climbing Washington Center
05:50PM 37.9936 -78.8458 247° West 428 493 30,300 780 Climbing Washington Center
05:51PM 37.9458 -78.9914 245° Southwest 441 507 31,000 900 Climbing Washington Center
05:52PM 37.8961 -79.1233 238° Southwest 455 524 32,100 1,320 Climbing Washington Center
05:53PM 37.8294 -79.2594 238° Southwest 455 524 33,700 1,260 Climbing Washington Center
05:54PM 37.7625 -79.3956 236° Southwest 455 524 34,700 960 Climbing Washington Center
05:55PM 37.6825 -79.5464 238° Southwest 478 550 35,700 960 Climbing Washington Center
05:56PM 37.6156 -79.6792 238° Southwest 473 544 36,700 720 Climbing Washington Center
05:58PM 37.4908 -79.9303 237° Southwest 448 516 38,000 420 Climbing Atlanta Center
05:59PM 37.4242 -80.0592 237° Southwest 448 516 38,000  Level Atlanta Center
06:00PM 37.3556 -80.1933 237° Southwest 448 516 38,000  Level Atlanta Center
06:01PM 37.2828 -80.3350 236° Southwest 448 516 38,000  Level Atlanta Center
06:02PM 37.2136 -80.4658 237° Southwest 448 516 38,000  Level Atlanta Center
06:03PM 37.1483 -80.5939 238° Southwest 448 516 38,000 -60 Level Atlanta Center
06:04PM 37.0892 -80.7136 245° Southwest 448 516 37,900 -60 Descending Atlanta Center
06:05PM 37.0367 -80.8536 245° Southwest 448 516 37,900  Level Atlanta Center
06:06PM 36.9839 -80.9933 247° West 448 516 38,000  Climbing Atlanta Center
06:07PM 36.9353 -81.1356 245° Southwest 448 516 38,000  Level Atlanta Center
06:08PM 36.8764 -81.2933 247° West 448 516 38,000  Level Atlanta Center
06:09PM 36.8272 -81.4350 246° West 448 516 38,000  Level Atlanta Center
06:10PM 36.7761 -81.5767 247° West 448 516 38,000  Level Atlanta Center
06:11PM 36.7267 -81.7208 245° Southwest 448 516 38,000  Level Atlanta Center
06:12PM 36.6731 -81.8619 245° Southwest 448 516 38,000  Level Atlanta Center
06:13PM 36.6192 -82.0058 245° Southwest 448 516 38,000  Level Atlanta Center
06:14PM 36.5672 -82.1467 246° West 448 516 38,000  Level Atlanta Center
06:15PM 36.5150 -82.2925 244° Southwest 448 516 38,000  Level Atlanta Center
06:16PM 36.4608 -82.4331 245° Southwest 453 521 38,000  Level Atlanta Center
06:17PM 36.4061 -82.5761 245° Southwest 453 521 38,000  Level Atlanta Center
06:18PM 36.3536 -82.7189 244° Southwest 453 521 38,000  Level Atlanta Center
06:19PM 36.3028 -82.8486 245° Southwest 458 527 38,000  Level Atlanta Center
06:20PM 36.2497 -82.9908 245° Southwest 458 527 38,000  Level Atlanta Center
06:21PM 36.1947 -83.1356 245° Southwest 463 533 38,000  Level Atlanta Center
06:22PM 36.1414 -83.2750 245° Southwest 458 527 38,000  Level Atlanta Center
06:23PM 36.0881 -83.4169 245° Southwest 458 527 38,000  Level Atlanta Center
06:24PM 36.0344 -83.5561 245° Southwest 463 533 38,000 -60 Level Atlanta Center
06:25PM 35.9806 -83.6975 245° Southwest 457 526 37,900  Descending Atlanta Center
06:26PM 35.9267 -83.8414 234° Southwest 457 526 38,000  Climbing Atlanta Center
06:27PM 35.8517 -83.9694 228° Southwest 463 533 38,000  Level Atlanta Center
06:28PM 35.7683 -84.0847 229° Southwest 463 533 38,000  Level Atlanta Center
06:29PM 35.6847 -84.2022 228° Southwest 463 533 38,000  Level Atlanta Center
06:30PM 35.5992 -84.3172 229° Southwest 463 533 38,000  Level Atlanta Center
06:31PM 35.5153 -84.4367 228° Southwest 463 533 38,000  Level Atlanta Center
06:32PM 35.4208 -84.5639 229° Southwest 463 533 38,000  Level Atlanta Center
06:33PM 35.3369 -84.6803 228° Southwest 463 533 38,000  Level Atlanta Center
06:34PM 35.2528 -84.7967 228° Southwest 463 533 38,000  Level Atlanta Center
06:35PM 35.1664 -84.9153 228° Southwest 463 533 38,000  Level Atlanta Center
06:36PM 35.0822 -85.0311 228° Southwest 463 533 38,000  Level Atlanta Center
06:37PM 34.9978 -85.1467 228° Southwest 463 533 38,000  Level Atlanta Center
06:38PM 34.9111 -85.2622 228° Southwest 463 533 38,000  Level Atlanta Center
06:39PM 34.8264 -85.3772 228° Southwest 463 533 38,000  Level Atlanta Center
06:40PM 34.7417 -85.4922 227° Southwest 463 533 38,000  Level Atlanta Center
06:41PM 34.6547 -85.6044 229° Southwest 463 533 38,000  Level Atlanta Center
06:42PM 34.5717 -85.7214 226° Southwest 463 533 38,000  Level Atlanta Center
06:43PM 34.5036 -85.8083 228° Southwest 463 533 38,000  Level Atlanta Center
06:44PM 34.4122 -85.9322 227° Southwest 463 533 38,000  Level Atlanta Center
06:45PM 34.3247 -86.0458 226° Southwest 463 533 38,000  Level Atlanta Center
06:46PM 34.2372 -86.1569 228° Southwest 463 533 38,000  Level Atlanta Center
06:47PM 34.1519 -86.2703 227° Southwest 463 533 38,000  Level Atlanta Center
06:48PM 34.0642 -86.3833 228° Southwest 463 533 38,000  Level Atlanta Center
06:49PM 33.9719 -86.5061 227° Southwest 463 533 38,000  Level Atlanta Center
06:50PM 33.8842 -86.6186 227° Southwest 463 533 38,000  Level Atlanta Center
06:51PM 33.7983 -86.7286 227° Southwest 463 533 38,000  Level Atlanta Center
06:52PM 33.7122 -86.8408 229° Southwest 463 533 38,000  Level Atlanta Center
06:53PM 33.6283 -86.9553 232° Southwest 463 533 38,000 -60 Level Atlanta Center
06:54PM 33.5589 -87.0625 231° Southwest 463 533 37,900  Descending Atlanta Center
06:55PM 33.4808 -87.1794 231° Southwest 458 527 38,000  Climbing Atlanta Center
06:56PM 33.4047 -87.2936 231° Southwest 453 521 38,000  Level Atlanta Center
06:57PM 33.3244 -87.4125 232° Southwest 458 527 38,000  Level Atlanta Center
06:59PM 33.1503 -87.6775 231° Southwest 440 506 38,000  Level Memphis Center
07:00PM 33.0733 -87.7914 231° Southwest 454 522 38,000  Level Memphis Center
07:01PM 33.0025 -87.8950 232° Southwest 454 522 38,000  Level Memphis Center
07:02PM 32.9172 -88.0236 231° Southwest 454 522 38,000  Level Memphis Center
07:03PM 32.8400 -88.1369 233° Southwest 454 522 38,000  Level Memphis Center
07:04PM 32.7647 -88.2550 239° Southwest 454 522 38,000  Level Memphis Center
07:05PM 32.7019 -88.3797 239° Southwest 454 522 38,000  Level Memphis Center
07:06PM 32.6372 -88.5069 238° Southwest 449 517 38,000  Level Memphis Center
07:07PM 32.5722 -88.6292 240° Southwest 454 522 38,000 -60 Level Memphis Center
07:08PM 32.5111 -88.7536 239° Southwest 454 522 37,900  Descending Memphis Center
07:09PM 32.4461 -88.8803 238° Southwest 454 522 38,000  Climbing Memphis Center
07:10PM 32.3828 -89.0019 238° Southwest 448 516 38,000  Level Memphis Center
07:11PM 32.3150 -89.1283 239° Southwest 448 516 38,000  Level Memphis Center
07:12PM 32.2517 -89.2519 238° Southwest 448 516 38,000  Level Memphis Center
07:13PM 32.1919 -89.3656 239° Southwest 453 521 38,000  Level Memphis Center
07:14PM 32.1281 -89.4889 239° Southwest 448 516 38,000  Level Memphis Center
07:15PM 32.0642 -89.6122 238° Southwest 448 516 38,000 -60 Level Memphis Center
07:17PM 31.9325 -89.8589 238° Southwest 451 519 37,900 -60 Descending Houston Center
07:18PM 31.8675 -89.9825 237° Southwest 443 510 37,900  Level Houston Center
07:19PM 31.8042 -90.0983 238° Southwest 443 510 37,900  Level Houston Center
07:20PM 31.7367 -90.2261 231° Southwest 443 510 37,900  Level Houston Center
07:21PM 31.6586 -90.3394 227° Southwest 443 510 38,000  Climbing Houston Center
07:22PM 31.5761 -90.4428 228° Southwest 448 516 37,900 -60 Descending Houston Center
07:23PM 31.4936 -90.5486 229° Southwest 448 516 37,900  Level Houston Center
07:24PM 31.4111 -90.6589 235° Southwest 448 516 37,900  Level Houston Center
07:25PM 31.3411 -90.7764 240° Southwest 443 510 37,900  Level Houston Center
07:26PM 31.2811 -90.8983 239° Southwest 443 510 37,900  Level Houston Center
07:27PM 31.2172 -91.0228 240° Southwest 443 510 37,900  Level Houston Center
07:28PM 31.1550 -91.1467 239° Southwest 448 516 37,900  Level Houston Center
07:29PM 31.0931 -91.2683 240° Southwest 448 516 37,900  Level Houston Center
07:30PM 31.0306 -91.3922 238° Southwest 448 516 37,900  Level Houston Center
07:31PM 30.9744 -91.4989 239° Southwest 448 516 38,000  Climbing Houston Center
07:32PM 30.9119 -91.6222 239° Southwest 448 516 38,000 -60 Level Houston Center
07:33PM 30.8494 -91.7433 239° Southwest 448 516 37,900 -60 Descending Houston Center
07:34PM 30.7867 -91.8664 238° Southwest 448 516 37,900  Level Houston Center
07:35PM 30.7217 -91.9872 240° Southwest 448 516 38,000  Climbing Houston Center
07:36PM 30.6628 -92.1053 239° Southwest 448 516 38,000  Level Houston Center
07:37PM 30.5997 -92.2256 239° Southwest 448 516 38,000  Level Houston Center
07:38PM 30.5367 -92.3483 239° Southwest 448 516 38,000  Level Houston Center
07:39PM 30.4733 -92.4683 240° Southwest 448 516 38,000 -60 Level Houston Center
07:40PM 30.4142 -92.5881 238° Southwest 442 509 37,900 -60 Descending Houston Center
07:41PM 30.3506 -92.7056 239° Southwest 442 509 37,900  Level Houston Center
07:42PM 30.2869 -92.8275 238° Southwest 442 509 37,900  Level Houston Center
07:43PM 30.2233 -92.9469 238° Southwest 442 509 37,900  Level Houston Center
07:44PM 30.1594 -93.0664 241° Southwest 442 509 37,900  Level Houston Center
07:45PM 30.0953 -93.2022 245° Southwest 442 509 37,900  Level Houston Center
07:46PM 30.0439 -93.3286 245° Southwest 442 509 37,900  Level Houston Center
07:47PM 29.9919 -93.4572 245° Southwest 436 502 37,900  Level Houston Center
07:48PM 29.9403 -93.5836 245° Southwest 436 502 37,900  Level Houston Center
07:49PM 29.8883 -93.7119 244° Southwest 441 507 37,900  Level Houston Center
07:50PM 29.8361 -93.8378 243° Southwest 441 507 37,900  Level Houston Center
07:51PM 29.7819 -93.9611 244° Southwest 441 507 37,900  Level Houston Center
07:52PM 29.7297 -94.0867 244° Southwest 428 493 37,900  Level Houston Center
07:53PM 29.6839 -94.1956 244° Southwest 443 510 38,000  Climbing Houston Center
07:54PM 29.6314 -94.3186 244° Southwest 443 510 38,000  Level Houston Center
07:55PM 29.5767 -94.4461 245° Southwest 438 504 38,000  Level Houston Center
07:56PM 29.5239 -94.5736 242° Southwest 438 504 38,000  Level Houston Center
07:57PM 29.4692 -94.6936 244° Southwest 438 504 38,000  Level Houston Center
07:58PM 29.4161 -94.8186 242° Southwest 438 504 38,000  Level Houston Center
07:59PM 29.3589 -94.9431 244° Southwest 438 504 38,000  Level Houston Center
08:00PM 29.3058 -95.0678 243° Southwest 438 504 38,000  Level Houston Center
08:01PM 29.2525 -95.1897 243° Southwest 438 504 38,000  Level Houston Center
08:02PM 29.1969 -95.3164 230° Southwest 438 504 38,000  Level Houston Center
08:03PM 29.1231 -95.4183 209° Southwest 438 504 38,000  Level Houston Center
08:04PM 29.0147 -95.4881 210° Southwest 428 493 38,000  Level Houston Center
08:05PM 28.9083 -95.5578 210° Southwest 435 501 38,000  Level Houston Center
08:06PM 28.8019 -95.6275 209° Southwest 441 507 38,000  Level Houston Center
08:07PM 28.6956 -95.6944 210° Southwest 451 519 38,000  Level Houston Center
08:08PM 28.5869 -95.7661 208° Southwest 451 519 38,000  Level Houston Center
08:09PM 28.4786 -95.8328 210° Southwest 451 519 38,000  Level Houston Center
08:10PM 28.3697 -95.9042 210° Southwest 451 519 38,000 -60 Level Houston Center
08:11PM 28.2633 -95.9731 210° Southwest 451 519 37,900 -60 Descending Houston Center
08:12PM 28.1544 -96.0442 209° Southwest 451 519 37,900  Level Houston Center
08:13PM 28.0439 -96.1125 210° Southwest 451 519 37,900  Level Houston Center
08:14PM 27.9372 -96.1811 210° Southwest 451 519 37,900  Level Houston Center
08:15PM 27.8303 -96.2517 209° Southwest 451 519 37,900  Level Houston Center
08:16PM 27.7217 -96.3200 208° Southwest 451 519 37,900  Level Houston Center
08:17PM 27.6108 -96.3878 210° Southwest 451 519 37,900  Level Houston Center
08:18PM 27.5039 -96.4581 209° Southwest 451 519 37,900  Level Houston Center
08:19PM 27.3928 -96.5281 210° Southwest 451 519 37,900  Level Houston Center
08:20PM 27.2817 -96.6003 205° Southwest 451 519 37,900  Level Houston Center
08:21PM 27.1561 -96.6669 210° Southwest 451 519 37,900  Level Houston Center
08:22PM 27.0472 -96.7367 210° Southwest 461 531 37,900  Level Houston Center
08:23PM 26.9425 -96.8042 209° Southwest 456 525 37,900  Level Houston Center
08:24PM 26.8269 -96.8756 209° Southwest 461 531 37,900  Level Houston Center
08:25PM 26.7222 -96.9406 208° Southwest 453 521 37,900  Level Houston Center
08:26PM 26.6111 -97.0072 209° Southwest 453 521 38,000  Climbing Houston Center
08:27PM 26.4978 -97.0761 210° Southwest 450 518 38,000  Level Houston Center
08:28PM 26.3928 -97.1450 208° Southwest 457 526 38,000  Level Houston Center
08:29PM 26.2794 -97.2114 209° Southwest 457 526 38,000  Level Houston Center
08:30PM 26.1683 -97.2800 208° Southwest 452 520 38,000  Level Houston Center
08:31PM 26.0569 -97.3461 209° Southwest 452 520 38,000  Level Houston Center
08:32PM 25.9458 -97.4144 198° South 452 520 38,000  Level Houston Center
08:39PM 25.1101 -97.7085 194° South  Level FlightAware Approximate
08:40PM 24.9935 -97.7400 194° South  Level FlightAware Approximate
08:41PM 24.8768 -97.7715 194° South  Level FlightAware Approximate
08:42PM 24.7602 -97.8029 194° South  Level FlightAware Approximate
08:43PM 24.6436 -97.8342 194° South  Level FlightAware Approximate
08:44PM 24.5269 -97.8655 194° South  Level FlightAware Approximate
08:45PM 24.4102 -97.8968 194° South  Level FlightAware Approximate
08:46PM 24.2936 -97.9279 194° South  Level FlightAware Approximate
08:47PM 24.1769 -97.9591 194° South  Level FlightAware Approximate
08:48PM 24.0602 -97.9901 194° South  Level FlightAware Approximate
08:49PM 23.9436 -98.0211 194° South  Level FlightAware Approximate
08:50PM 23.8269 -98.0521 194° South  Level FlightAware Approximate
08:51PM 23.7102 -98.0830 194° South  Level FlightAware Approximate
08:52PM 23.5935 -98.1138 194° South  Level FlightAware Approximate
08:53PM 23.4768 -98.1446 194° South  Level FlightAware Approximate
08:54PM 23.3601 -98.1753 194° South  Level FlightAware Approximate
08:55PM 23.2433 -98.2060 211° Southwest  Level FlightAware Approximate
08:56PM 23.1473 -98.2695 191° South  Level FlightAware Approximate
08:57PM 23.0296 -98.2954 191° South  Level FlightAware Approximate
08:58PM 22.9119 -98.3211 191° South  Level FlightAware Approximate
08:59PM 22.7943 -98.3469 191° South  Level FlightAware Approximate
09:00PM 22.6765 -98.3726 191° South  Level FlightAware Approximate
09:01PM 22.5588 -98.3982 191° South  Level FlightAware Approximate
09:02PM 22.4411 -98.4238 191° South  Level FlightAware Approximate
09:03PM 22.3234 -98.4494 191° South  Level FlightAware Approximate
09:04PM 22.2057 -98.4749 191° South  Level FlightAware Approximate
09:05PM 22.0879 -98.5004 191° South  Level FlightAware Approximate
09:06PM 21.9702 -98.5258 191° South  Level FlightAware Approximate
09:07PM 21.8525 -98.5512 223° Southwest  Level FlightAware Approximate
09:08PM 21.7668 -98.6382 190° South  Level FlightAware Approximate
09:09PM 21.6485 -98.6600 190° South  Level FlightAware Approximate
09:10PM 21.5301 -98.6818 190° South  Level FlightAware Approximate
09:11PM 21.4118 -98.7035 212° Southwest  Level FlightAware Approximate
09:12PM 21.3174 -98.7667 198° South  Level FlightAware Approximate
09:13PM 21.2049 -98.8066 188° South  Level FlightAware Approximate
09:14PM 21.0859 -98.8238 198° South  Level FlightAware Approximate
09:15PM 20.9717 -98.8633 187° South  Level FlightAware Approximate
09:16PM 20.8525 -98.8785 187° South  Level FlightAware Approximate
09:17PM 20.7332 -98.8938 187° South  Level FlightAware Approximate
09:18PM 20.6140 -98.9090 187° South  Level FlightAware Approximate
09:19PM 20.4948 -98.9242 187° South  Level FlightAware Approximate
09:20PM 20.3756 -98.9393 187° South  Level FlightAware Approximate
09:21PM 20.2563 -98.9545 197° South  Level FlightAware Approximate
09:22PM 20.1450 -98.9905 184° South  Level FlightAware Approximate
09:23PM 20.0253 -99.0000 183° South  Level FlightAware Approximate
09:24PM 19.9057 -99.0076 186° South  Level FlightAware Approximate
09:25PM 19.7864 -99.0214 185° South  Level FlightAware Approximate
09:26PM 19.6669 -99.0333 188° South  Level FlightAware Approximate
09:27PM 19.5487 -99.0500 186° South  Level FlightAware Approximate
09:28PM 19.4300 -99.0640 310° West  Level FlightAware Approximate
09:29PM 19.5065 -99.1620 130° Southeast  Level Estimated
09:30PM 19.4300 -99.0640 191° South  Level Estimated
09:31PM 19.4167 -99.0667 345° North  Level FlightAware Approximate
09:32PM 19.5328 -99.0988 165° South  Level Estimated
09:33PM 19.4167 -99.0667 165° South  Level FlightAware Approximate